createdAt,value
2023-05-23T00:01:07.293Z,14.15
2023-05-23T00:03:35.164Z,14.14
2023-05-23T00:06:02.617Z,14.05
2023-05-23T00:08:29.746Z,14.00
2023-05-23T00:10:57.116Z,13.98
2023-05-23T00:13:24.326Z,13.97
2023-05-23T00:15:52.309Z,13.95
2023-05-23T00:18:19.778Z,13.96
2023-05-23T00:20:47.087Z,13.93
2023-05-23T00:23:19.128Z,13.94
2023-05-23T00:25:52.965Z,13.90
2023-05-23T00:28:20.793Z,13.88
2023-05-23T00:30:52.193Z,13.83
2023-05-23T00:33:22.164Z,13.83
2023-05-23T00:35:49.852Z,13.80
2023-05-23T00:38:17.500Z,13.69
2023-05-23T00:40:44.655Z,13.52
2023-05-23T00:43:12.482Z,13.48
2023-05-23T00:45:40.069Z,13.47
2023-05-23T00:48:08.086Z,13.47
2023-05-23T00:50:36.248Z,13.48
2023-05-23T00:53:04.166Z,13.47
2023-05-23T00:55:32.002Z,13.45
2023-05-23T00:57:59.454Z,13.45
2023-05-23T01:00:26.863Z,13.47
2023-05-23T01:02:54.982Z,13.44
2023-05-23T01:05:24.978Z,13.45
2023-05-23T01:07:52.911Z,13.49
2023-05-23T01:10:22.461Z,13.52
2023-05-23T01:13:16.144Z,13.52
2023-05-23T01:16:03.038Z,13.50
2023-05-23T01:18:54.613Z,13.49
2023-05-23T01:21:23.161Z,13.48
2023-05-23T01:24:13.853Z,13.47
2023-05-23T01:26:59.219Z,13.50
2023-05-23T01:29:35.625Z,13.57
2023-05-23T01:32:06.738Z,13.55
2023-05-23T01:34:35.828Z,13.48
2023-05-23T01:37:08.675Z,13.45
2023-05-23T01:39:37.272Z,13.42
2023-05-23T01:42:04.769Z,13.39
2023-05-23T01:44:34.658Z,13.36
2023-05-23T01:47:06.211Z,13.35
2023-05-23T01:49:34.191Z,13.33
2023-05-23T01:52:02.248Z,13.34
2023-05-23T01:54:30.159Z,13.35
2023-05-23T01:57:01.608Z,13.34
2023-05-23T01:59:29.076Z,13.31
2023-05-23T02:01:57.530Z,13.29
2023-05-23T02:04:24.926Z,13.26
2023-05-23T02:06:52.087Z,13.25
2023-05-23T02:09:19.362Z,13.25
2023-05-23T02:11:46.861Z,13.21
2023-05-23T02:14:13.998Z,13.19
2023-05-23T02:16:41.215Z,13.17
2023-05-23T02:19:08.730Z,13.14
2023-05-23T02:21:36.338Z,13.14
2023-05-23T02:24:03.782Z,13.13
2023-05-23T02:26:30.972Z,13.11
2023-05-23T02:28:58.327Z,13.09
2023-05-23T02:31:25.716Z,13.08
2023-05-23T02:33:53.689Z,13.07
2023-05-23T02:36:21.704Z,13.03
2023-05-23T02:38:48.852Z,13.01
2023-05-23T02:41:17.405Z,12.99
2023-05-23T02:43:47.950Z,12.99
2023-05-23T02:46:16.137Z,12.98
2023-05-23T02:48:43.369Z,13.02
2023-05-23T02:51:13.753Z,12.98
2023-05-23T02:53:41.287Z,12.92
2023-05-23T02:56:08.771Z,12.92
2023-05-23T02:58:36.278Z,12.92
2023-05-23T03:01:04.932Z,12.90
2023-05-23T03:03:33.830Z,12.93
2023-05-23T03:06:03.358Z,12.96
2023-05-23T03:08:30.778Z,13.02
2023-05-23T03:10:57.976Z,13.06
2023-05-23T03:13:25.355Z,13.07
2023-05-23T03:15:52.622Z,13.08
2023-05-23T03:18:20.703Z,13.09
2023-05-23T03:20:48.131Z,13.12
2023-05-23T03:23:15.214Z,13.15
2023-05-23T03:25:43.339Z,13.16
2023-05-23T03:28:12.253Z,13.23
2023-05-23T03:30:39.352Z,13.28
2023-05-23T03:33:07.422Z,13.35
2023-05-23T03:35:34.902Z,13.42
2023-05-23T03:38:02.125Z,13.46
2023-05-23T03:40:29.247Z,13.47
2023-05-23T03:43:06.560Z,13.53
2023-05-23T03:45:34.054Z,13.54
2023-05-23T03:48:02.263Z,13.57
2023-05-23T03:50:30.552Z,13.60
2023-05-23T03:52:57.623Z,13.66
2023-05-23T03:55:25.515Z,13.72
2023-05-23T03:57:52.836Z,13.83
2023-05-23T04:00:20.092Z,13.93
2023-05-23T04:02:51.975Z,14.04
2023-05-23T04:05:19.393Z,14.18
2023-05-23T04:07:46.858Z,14.32
2023-05-23T04:10:14.951Z,14.45
2023-05-23T04:12:42.929Z,14.61
2023-05-23T04:15:11.401Z,14.78
2023-05-23T04:17:40.891Z,14.91
2023-05-23T04:20:09.775Z,15.07
2023-05-23T04:22:37.173Z,15.23
2023-05-23T04:25:06.436Z,15.36
2023-05-23T04:27:36.859Z,15.50
2023-05-23T04:30:08.226Z,15.65
2023-05-23T04:32:36.504Z,15.82
2023-05-23T04:35:04.461Z,15.96
2023-05-23T04:37:33.097Z,16.11
2023-05-23T04:40:01.219Z,16.27
2023-05-23T04:42:29.444Z,16.47
2023-05-23T04:44:58.394Z,16.68
2023-05-23T04:47:28.591Z,16.82
2023-05-23T04:49:57.542Z,17.16
2023-05-23T04:52:25.520Z,17.41
2023-05-23T04:54:54.095Z,17.60
2023-05-23T04:57:22.184Z,17.90
2023-05-23T04:59:49.439Z,18.20
2023-05-23T05:02:16.677Z,18.44
2023-05-23T05:04:44.471Z,18.51
2023-05-23T05:07:11.871Z,18.68
2023-05-23T05:09:39.431Z,18.77
2023-05-23T05:12:07.978Z,18.98
2023-05-23T05:14:35.945Z,19.06
2023-05-23T05:17:04.209Z,19.11
2023-05-23T05:19:33.903Z,19.26
2023-05-23T05:22:01.410Z,19.33
2023-05-23T05:24:29.856Z,19.49
2023-05-23T05:26:57.342Z,19.72
2023-05-23T05:29:25.330Z,19.92
2023-05-23T05:31:53.880Z,19.78
2023-05-23T05:34:21.361Z,19.77
2023-05-23T05:36:48.760Z,19.80
2023-05-23T05:39:16.275Z,19.90
2023-05-23T05:41:43.696Z,20.17
2023-05-23T05:44:11.065Z,20.26
2023-05-23T05:46:38.205Z,20.46
2023-05-23T05:49:05.665Z,20.56
2023-05-23T05:51:32.850Z,20.41
2023-05-23T05:53:59.966Z,20.50
2023-05-23T05:56:28.084Z,20.67
2023-05-23T05:58:55.360Z,20.90
2023-05-23T06:01:23.490Z,21.02
2023-05-23T06:03:51.148Z,20.84
2023-05-23T06:06:18.578Z,21.03
2023-05-23T06:08:46.937Z,21.07
2023-05-23T06:11:16.668Z,20.91
2023-05-23T06:13:43.934Z,21.18
2023-05-23T06:16:11.185Z,21.42
2023-05-23T06:18:39.282Z,21.35
2023-05-23T06:21:07.051Z,21.61
2023-05-23T06:23:34.758Z,21.56
2023-05-23T06:26:03.034Z,21.48
2023-05-23T06:28:30.194Z,21.61
2023-05-23T06:30:57.335Z,21.77
2023-05-23T06:33:24.820Z,21.95
2023-05-23T06:35:52.959Z,22.15
2023-05-23T06:38:20.718Z,22.19
2023-05-23T06:40:48.955Z,22.25
2023-05-23T06:43:16.237Z,22.43
2023-05-23T06:45:46.753Z,22.40
2023-05-23T06:48:14.199Z,22.48
2023-05-23T06:50:41.684Z,22.43
2023-05-23T06:53:09.512Z,22.69
2023-05-23T06:55:36.983Z,22.81
2023-05-23T06:58:04.839Z,22.85
2023-05-23T07:00:33.184Z,22.86
2023-05-23T07:03:03.541Z,23.08
2023-05-23T07:05:33.322Z,23.24
2023-05-23T07:08:01.946Z,23.39
2023-05-23T07:10:29.651Z,23.45
2023-05-23T07:12:58.862Z,23.34
2023-05-23T07:15:26.930Z,23.47
2023-05-23T07:17:54.723Z,23.74
2023-05-23T07:20:22.017Z,23.65
2023-05-23T07:22:51.631Z,23.64
2023-05-23T07:25:19.261Z,23.82
2023-05-23T07:27:46.502Z,24.02
2023-05-23T07:30:14.374Z,23.87
2023-05-23T07:32:42.191Z,23.81
2023-05-23T07:35:09.907Z,23.76
2023-05-23T07:37:37.485Z,23.43
2023-05-23T07:40:05.756Z,23.58
2023-05-23T07:42:33.219Z,23.75
2023-05-23T07:45:01.137Z,24.02
2023-05-23T07:47:28.637Z,24.21
2023-05-23T07:49:55.807Z,24.38
2023-05-23T07:52:24.099Z,24.36
2023-05-23T07:54:51.342Z,24.43
2023-05-23T07:57:18.638Z,24.50
2023-05-23T07:59:46.097Z,24.50
2023-05-23T08:02:13.280Z,24.47
2023-05-23T08:04:40.936Z,24.60
2023-05-23T08:07:09.735Z,24.60
2023-05-23T08:09:38.667Z,24.71
2023-05-23T08:12:07.648Z,24.50
2023-05-23T08:14:49.049Z,24.54
2023-05-23T08:17:18.031Z,24.73
2023-05-23T08:19:46.849Z,24.58
2023-05-23T08:22:14.048Z,24.65
2023-05-23T08:24:41.586Z,24.64
2023-05-23T08:27:09.539Z,24.75
2023-05-23T08:29:37.405Z,24.96
2023-05-23T08:32:06.098Z,25.02
2023-05-23T08:34:35.009Z,24.89
2023-05-23T08:37:03.299Z,24.92
2023-05-23T08:39:31.000Z,25.05
2023-05-23T08:41:58.591Z,25.07
2023-05-23T08:44:25.773Z,25.13
2023-05-23T08:46:54.189Z,25.14
2023-05-23T08:49:22.851Z,25.21
2023-05-23T08:51:52.469Z,25.19
2023-05-23T08:54:22.344Z,25.22
2023-05-23T08:56:49.715Z,25.08
2023-05-23T08:59:19.229Z,25.13
2023-05-23T09:01:48.509Z,24.89
2023-05-23T09:04:16.160Z,24.91
2023-05-23T09:06:44.907Z,25.13
2023-05-23T09:09:13.026Z,25.39
2023-05-23T09:11:41.591Z,25.61
2023-05-23T09:14:09.587Z,25.75
2023-05-23T09:16:36.998Z,25.77
2023-05-23T09:19:12.979Z,25.88
2023-05-23T09:21:44.925Z,25.81
2023-05-23T09:24:13.121Z,25.63
2023-05-23T09:26:40.936Z,25.84
2023-05-23T09:29:08.273Z,26.07
2023-05-23T09:31:36.081Z,26.35
2023-05-23T09:34:04.157Z,26.35
2023-05-23T09:36:33.787Z,26.25
2023-05-23T09:39:08.119Z,25.78
2023-05-23T09:41:35.921Z,25.65
2023-05-23T09:44:08.632Z,25.75
2023-05-23T09:46:38.515Z,26.00
2023-05-23T10:01:16.603Z,27.40
2023-05-23T10:03:50.991Z,27.40
2023-05-23T10:06:24.432Z,27.13
2023-05-23T10:08:56.146Z,27.34
2023-05-23T10:11:36.030Z,27.28
2023-05-23T10:14:07.104Z,27.72
2023-05-23T10:16:56.603Z,28.00
2023-05-23T10:19:25.801Z,28.21
2023-05-23T10:22:01.512Z,28.63
2023-05-23T10:24:29.367Z,28.56
2023-05-23T10:26:57.179Z,28.68
2023-05-23T10:29:25.158Z,28.74
2023-05-23T10:31:53.185Z,28.03
2023-05-23T10:34:30.600Z,27.44
2023-05-23T10:37:04.343Z,27.13
2023-05-23T10:39:56.852Z,26.84
2023-05-23T10:43:00.146Z,26.89
2023-05-23T10:45:28.088Z,27.28
2023-05-23T10:47:55.885Z,27.71
2023-05-23T10:50:37.306Z,27.80
2023-05-23T10:53:05.771Z,28.09
2023-05-23T10:55:34.502Z,28.40
2023-05-23T10:58:23.978Z,28.70
2023-05-23T11:00:55.260Z,28.86
2023-05-23T11:03:48.735Z,28.76
2023-05-23T11:06:42.879Z,28.25
2023-05-23T11:09:28.064Z,27.97
2023-05-23T11:12:04.794Z,28.03
2023-05-23T11:14:37.982Z,28.11
2023-05-23T11:17:12.264Z,27.64
2023-05-23T11:19:39.825Z,27.53
2023-05-23T11:22:10.390Z,27.85
2023-05-23T11:25:07.746Z,28.26
2023-05-23T11:27:40.243Z,28.46
2023-05-23T11:30:18.056Z,28.27
2023-05-23T11:32:53.123Z,28.50
2023-05-23T11:35:21.506Z,28.82
2023-05-23T11:37:49.414Z,29.03
2023-05-23T11:40:28.464Z,29.09
2023-05-23T11:42:56.732Z,28.50
2023-05-23T11:45:25.069Z,28.61
2023-05-23T11:47:52.820Z,28.93
2023-05-23T11:50:20.741Z,29.00
2023-05-23T11:52:51.876Z,29.26
2023-05-23T11:55:21.184Z,29.39
2023-05-23T11:57:48.981Z,29.47
2023-05-23T12:00:16.663Z,29.49
2023-05-23T12:02:45.676Z,29.73
2023-05-23T12:05:14.226Z,29.68
2023-05-23T12:07:47.374Z,29.44
2023-05-23T12:10:17.242Z,29.65
2023-05-23T12:12:45.463Z,29.99
2023-05-23T12:15:13.609Z,30.13
2023-05-23T12:17:48.941Z,30.00
2023-05-23T12:20:16.219Z,29.51
2023-05-23T12:22:43.880Z,29.07
2023-05-23T12:25:11.857Z,28.81
2023-05-23T12:27:41.799Z,29.40
2023-05-23T12:30:17.372Z,29.98
2023-05-23T12:32:45.890Z,30.11
2023-05-23T12:35:14.754Z,30.15
2023-05-23T12:37:43.041Z,30.13
2023-05-23T12:40:17.571Z,30.35
2023-05-23T12:42:47.228Z,30.81
2023-05-23T12:45:15.882Z,31.02
2023-05-23T12:47:43.035Z,31.03
2023-05-23T12:50:11.828Z,30.96
2023-05-23T12:52:40.193Z,30.85
2023-05-23T12:55:11.723Z,30.68
2023-05-23T12:57:39.724Z,30.86
2023-05-23T13:00:08.279Z,30.86
2023-05-23T13:02:35.564Z,30.76
2023-05-23T13:05:03.501Z,30.13
2023-05-23T13:07:30.888Z,30.27
2023-05-23T13:09:58.087Z,30.46
2023-05-23T13:12:25.645Z,30.25
2023-05-23T13:14:52.865Z,30.60
2023-05-23T13:17:20.025Z,30.70
2023-05-23T13:19:47.522Z,30.68
2023-05-23T13:22:14.680Z,30.96
2023-05-23T13:24:45.658Z,30.86
2023-05-23T13:27:13.374Z,30.74
2023-05-23T13:29:42.458Z,30.89
2023-05-23T13:32:10.334Z,31.01
2023-05-23T13:34:38.376Z,31.03
2023-05-23T13:37:06.578Z,30.27
2023-05-23T13:39:33.829Z,29.80
2023-05-23T13:42:01.345Z,30.44
2023-05-23T13:44:28.524Z,30.78
2023-05-23T13:46:55.952Z,30.71
2023-05-23T13:49:24.360Z,30.43
2023-05-23T13:51:51.459Z,30.73
2023-05-23T13:54:18.618Z,29.96
2023-05-23T13:56:46.569Z,29.85
2023-05-23T13:59:13.815Z,30.50
2023-05-23T14:01:43.167Z,31.07
2023-05-23T14:04:11.375Z,31.52
2023-05-23T14:06:38.945Z,31.94
2023-05-23T14:09:06.389Z,31.56
2023-05-23T14:11:33.924Z,31.34
2023-05-23T14:14:01.098Z,31.32
2023-05-23T14:16:28.321Z,30.63
2023-05-23T14:18:55.937Z,29.77
2023-05-23T14:21:23.307Z,28.93
2023-05-23T14:23:50.429Z,28.15
2023-05-23T14:26:17.864Z,27.52
2023-05-23T14:28:45.495Z,28.48
2023-05-23T14:31:12.599Z,29.16
2023-05-23T14:33:40.287Z,29.59
2023-05-23T14:36:08.277Z,29.65
2023-05-23T14:38:35.407Z,29.95
2023-05-23T14:41:02.791Z,30.33
2023-05-23T14:43:29.887Z,30.58
2023-05-23T14:45:57.252Z,30.86
2023-05-23T14:48:24.690Z,31.00
2023-05-23T14:50:51.858Z,30.82
2023-05-23T14:53:22.402Z,31.23
2023-05-23T14:55:49.973Z,31.14
2023-05-23T14:58:18.095Z,31.07
2023-05-23T15:00:47.686Z,31.11
2023-05-23T15:03:15.921Z,30.90
2023-05-23T15:05:45.784Z,30.85
2023-05-23T15:08:16.543Z,31.09
2023-05-23T15:10:45.345Z,30.47
2023-05-23T15:13:13.343Z,30.65
2023-05-23T15:15:43.042Z,31.15
2023-05-23T15:18:11.847Z,30.95
2023-05-23T15:20:39.090Z,30.86
2023-05-23T15:23:07.102Z,30.72
2023-05-23T15:25:46.490Z,31.06
2023-05-23T15:28:15.974Z,30.99
2023-05-23T15:30:44.136Z,31.10
2023-05-23T15:33:12.857Z,30.89
2023-05-23T15:35:40.681Z,30.66
2023-05-23T15:38:08.284Z,30.20
2023-05-23T15:40:35.562Z,29.71
2023-05-23T15:43:03.363Z,29.45
2023-05-23T15:45:30.465Z,29.08
2023-05-23T15:47:57.720Z,28.77
2023-05-23T15:50:25.438Z,28.51
2023-05-23T15:52:52.507Z,28.33
2023-05-23T15:55:21.358Z,28.07
2023-05-23T15:57:48.795Z,28.05
2023-05-23T16:00:16.428Z,27.78
2023-05-23T16:02:43.906Z,27.36
2023-05-23T16:05:11.141Z,27.20
2023-05-23T16:07:38.673Z,27.17
2023-05-23T16:10:06.589Z,26.86
2023-05-23T16:12:33.734Z,26.63
2023-05-23T16:15:00.865Z,26.49
2023-05-23T16:17:28.259Z,26.45
2023-05-23T16:19:55.651Z,26.31
2023-05-23T16:22:23.363Z,26.26
2023-05-23T16:24:51.537Z,26.19
2023-05-23T16:27:19.651Z,25.93
2023-05-23T16:29:46.796Z,25.81
2023-05-23T16:32:15.481Z,25.66
2023-05-23T16:34:45.655Z,25.43
2023-05-23T16:37:15.927Z,25.25
2023-05-23T16:39:43.335Z,25.09
2023-05-23T16:42:10.585Z,24.87
2023-05-23T16:44:37.996Z,24.76
2023-05-23T16:47:05.342Z,24.50
2023-05-23T16:49:32.460Z,24.39
2023-05-23T16:51:59.860Z,24.25
2023-05-23T16:54:27.220Z,24.03
2023-05-23T16:56:54.422Z,24.02
2023-05-23T16:59:21.947Z,23.96
2023-05-23T17:01:49.157Z,23.85
2023-05-23T17:04:17.673Z,23.70
2023-05-23T17:06:47.270Z,23.53
2023-05-23T17:09:14.539Z,23.41
2023-05-23T17:11:41.641Z,23.33
2023-05-23T17:14:09.413Z,23.32
2023-05-23T17:16:36.615Z,23.15
2023-05-23T17:19:04.357Z,22.52
2023-05-23T17:21:34.383Z,21.71
2023-05-23T17:24:02.157Z,21.18
2023-05-23T17:26:29.297Z,20.45
2023-05-23T17:28:56.731Z,19.89
2023-05-23T17:31:23.883Z,19.73
2023-05-23T17:33:51.273Z,19.39
2023-05-23T17:36:18.709Z,18.92
2023-05-23T17:38:45.843Z,18.83
2023-05-23T17:41:14.630Z,18.70
2023-05-23T17:43:45.331Z,18.42
2023-05-23T17:46:12.490Z,18.22
2023-05-23T17:51:12.901Z,17.99
2023-05-23T17:53:41.399Z,17.85
2023-05-23T17:56:09.423Z,17.75
2023-05-23T17:58:38.870Z,17.64
2023-05-23T18:01:07.069Z,17.50
2023-05-23T18:03:34.543Z,17.45
2023-05-23T18:06:03.694Z,17.29
2023-05-23T18:08:30.835Z,17.22
2023-05-23T18:10:58.259Z,17.17
2023-05-23T18:13:25.662Z,16.92
2023-05-23T18:15:52.844Z,16.62
2023-05-23T18:18:20.281Z,16.19
2023-05-23T18:20:47.555Z,15.95
2023-05-23T18:23:14.688Z,15.70
2023-05-23T18:25:43.085Z,15.57
2023-05-23T18:28:11.063Z,15.47
2023-05-23T18:30:38.197Z,15.34
2023-05-23T18:33:07.462Z,15.32
2023-05-23T18:35:34.720Z,15.18
2023-05-23T18:38:01.792Z,15.17
2023-05-23T18:40:29.526Z,15.14
2023-05-23T18:42:56.669Z,15.06
2023-05-23T18:45:23.726Z,15.00
2023-05-23T18:47:51.276Z,15.00
2023-05-23T18:50:18.686Z,14.97
2023-05-23T18:52:45.858Z,15.05
2023-05-23T18:55:13.203Z,15.04
2023-05-23T18:57:41.228Z,15.05
2023-05-23T19:00:09.348Z,15.05
2023-05-23T19:02:36.778Z,15.01
2023-05-23T19:05:04.128Z,15.08
2023-05-23T19:07:31.165Z,15.13
2023-05-23T19:09:58.841Z,15.20
2023-05-23T19:12:26.055Z,15.22
2023-05-23T19:14:53.345Z,15.29
2023-05-23T19:17:20.672Z,15.35
2023-05-23T19:19:47.723Z,15.39
2023-05-23T19:22:14.767Z,15.43
2023-05-23T19:24:42.316Z,15.46
2023-05-23T19:27:09.408Z,15.47
2023-05-23T19:29:36.470Z,15.53
2023-05-23T19:32:04.030Z,15.52
2023-05-23T19:34:31.421Z,15.53
2023-05-23T19:37:00.516Z,15.51
2023-05-23T19:39:27.978Z,15.46
2023-05-23T19:41:55.035Z,15.43
2023-05-23T19:44:22.079Z,15.44
2023-05-23T19:46:49.429Z,15.51
2023-05-23T19:49:19.297Z,15.60
2023-05-23T19:51:46.684Z,15.65
2023-05-23T19:54:15.539Z,15.77
2023-05-23T19:56:42.816Z,15.89
2023-05-23T19:59:09.918Z,15.87
2023-05-23T20:01:37.353Z,15.89
2023-05-23T20:04:08.450Z,15.88
2023-05-23T20:06:35.558Z,15.87
2023-05-23T20:09:02.958Z,15.87
2023-05-23T20:11:30.992Z,15.93
2023-05-23T20:13:58.103Z,16.15
2023-05-23T20:16:25.922Z,16.17
2023-05-23T20:18:54.457Z,16.07
2023-05-23T20:21:21.679Z,16.00
2023-05-23T20:23:49.238Z,15.99
2023-05-23T20:26:16.675Z,15.98
2023-05-23T20:28:43.883Z,16.02
2023-05-23T20:31:10.915Z,16.04
2023-05-23T20:33:38.221Z,16.02
2023-05-23T20:36:05.628Z,16.11
2023-05-23T20:38:34.133Z,16.01
2023-05-23T20:41:07.326Z,15.94
2023-05-23T20:43:37.440Z,15.87
2023-05-23T20:46:05.943Z,15.83
2023-05-23T20:48:33.613Z,15.83
2023-05-23T20:51:00.936Z,15.77
2023-05-23T20:53:28.472Z,15.60
2023-05-23T20:55:55.987Z,15.40
2023-05-23T20:58:23.250Z,15.33
2023-05-23T21:00:50.964Z,15.20
2023-05-23T21:03:18.235Z,15.17
2023-05-23T21:05:45.797Z,15.17
2023-05-23T21:08:13.269Z,15.12
2023-05-23T21:10:40.532Z,14.98
2023-05-23T21:13:08.034Z,14.96
2023-05-23T21:15:35.761Z,14.89
2023-05-23T21:18:03.010Z,14.83
2023-05-23T21:20:30.665Z,14.85
2023-05-23T21:22:58.078Z,14.79
2023-05-23T21:25:25.490Z,14.80
2023-05-23T21:27:52.598Z,14.75
2023-05-23T21:30:20.181Z,14.73
2023-05-23T21:32:52.604Z,14.70
2023-05-23T21:35:20.131Z,14.69
2023-05-23T21:37:47.308Z,14.64
2023-05-23T21:40:14.465Z,14.65
2023-05-23T21:42:41.846Z,14.62
2023-05-23T21:45:09.351Z,14.59
2023-05-23T21:47:36.467Z,14.46
2023-05-23T21:50:06.763Z,14.42
2023-05-23T21:52:33.881Z,14.35
2023-05-23T21:55:00.998Z,14.32
2023-05-23T21:57:28.416Z,14.27
2023-05-23T21:59:55.698Z,14.25
2023-05-23T22:02:22.816Z,14.24
2023-05-23T22:04:50.335Z,14.24
2023-05-23T22:07:17.469Z,14.21
2023-05-23T22:09:44.638Z,14.22
2023-05-23T22:12:13.616Z,14.24
2023-05-23T22:14:40.897Z,14.22
2023-05-23T22:17:08.119Z,14.21
2023-05-23T22:19:36.554Z,14.18
2023-05-23T22:22:03.964Z,14.13
2023-05-23T22:24:31.270Z,14.13
2023-05-23T22:26:58.698Z,14.10
2023-05-23T22:29:25.988Z,14.07
2023-05-23T22:31:53.130Z,14.02
2023-05-23T22:34:20.685Z,14.00
2023-05-23T22:36:50.865Z,13.98
2023-05-23T22:39:18.276Z,13.97
2023-05-23T22:41:45.719Z,13.87
2023-05-23T22:44:12.844Z,13.85
2023-05-23T22:46:42.798Z,13.87
2023-05-23T22:49:10.298Z,13.86
2023-05-23T22:51:37.392Z,13.89
2023-05-23T22:54:04.509Z,13.91
2023-05-23T22:56:31.916Z,13.95
2023-05-23T22:58:59.007Z,13.92
2023-05-23T23:01:26.362Z,13.95
2023-05-23T23:03:53.852Z,13.94
2023-05-23T23:06:21.071Z,13.92
2023-05-23T23:08:48.199Z,13.91
2023-05-23T23:11:15.611Z,13.93
2023-05-23T23:13:42.808Z,13.92
2023-05-23T23:16:09.858Z,13.96
2023-05-23T23:18:37.363Z,13.99
2023-05-23T23:21:04.445Z,14.05
2023-05-23T23:23:31.502Z,14.08
2023-05-23T23:25:59.527Z,14.08
2023-05-23T23:28:26.779Z,14.09
2023-05-23T23:30:53.937Z,14.07
2023-05-23T23:33:21.713Z,14.08
2023-05-23T23:35:49.175Z,14.04
2023-05-23T23:38:16.471Z,14.01
2023-05-23T23:40:45.794Z,14.00
2023-05-23T23:43:13.778Z,14.04
2023-05-23T23:45:40.923Z,14.04
2023-05-23T23:48:08.513Z,14.01
2023-05-23T23:50:35.577Z,13.97
2023-05-23T23:53:02.909Z,13.96
2023-05-23T23:55:30.253Z,13.95
2023-05-23T23:57:57.844Z,13.95
